Time;durP1;ratioP1;P1;durP2;ratioP2;P2;SDS_P1;SDS_P2;PMS_P1;PMS_P2;Temp;Humidity;BMP_temperature;BMP_pressure;BME280_temperature;BME280_humidity;BME280_pressure;Samples;Min_cycle;Max_cycle;Signal;HPM_P1;HPM_P2
2022/12/20 00:01:25;;;;;;;1.13;0.40;;;5.20;99.90;;;;;;5055229;28;20442;-78
2022/12/20 00:03:53;;;;;;;1.13;0.80;;;5.20;99.90;;;;;;5055109;28;20469;-78
2022/12/20 00:06:22;;;;;;;1.20;0.60;;;5.10;99.90;;;;;;5055111;28;20446;-78
2022/12/20 00:08:53;;;;;;;0.40;0.40;;;5.20;99.90;;;;;;5055128;28;20450;-78
2022/12/20 00:11:20;;;;;;;5.50;0.60;;;5.10;99.90;;;;;;5054785;28;20933;-78
2022/12/20 00:13:47;;;;;;;2.20;0.60;;;5.10;99.90;;;;;;5054546;28;20485;-78
2022/12/20 00:16:17;;;;;;;0.60;0.40;;;5.10;99.90;;;;;;5054952;28;20820;-78
2022/12/20 00:18:44;;;;;;;0.30;0.30;;;5.00;99.90;;;;;;5055178;28;20442;-79
2022/12/20 00:21:13;;;;;;;0.40;0.40;;;5.00;99.90;;;;;;5054845;28;20454;-79
2022/12/20 00:23:40;;;;;;;7.60;0.60;;;5.10;99.90;;;;;;5054240;28;20486;-79
2022/12/20 00:26:09;;;;;;;0.30;0.30;;;5.10;99.90;;;;;;5054452;28;20965;-79
2022/12/20 00:28:36;;;;;;;0.63;0.33;;;5.00;99.90;;;;;;5054426;28;20446;-79
2022/12/20 00:31:04;;;;;;;0.40;0.40;;;5.00;99.90;;;;;;5054676;28;20446;-79
2022/12/20 00:33:32;;;;;;;1.57;1.17;;;5.00;99.90;;;;;;5054472;28;20486;-78
2022/12/20 00:35:59;;;;;;;1.07;1.07;;;4.90;99.90;;;;;;5054513;28;20434;-78
2022/12/20 00:38:26;;;;;;;2.20;0.93;;;4.90;99.90;;;;;;5054509;28;20453;-78
2022/12/20 00:41:00;;;;;;;0.40;0.40;;;4.90;99.90;;;;;;5054474;28;20430;-79
2022/12/20 00:43:27;;;;;;;0.40;0.40;;;5.00;99.90;;;;;;5054307;28;20454;-78
2022/12/20 00:45:53;;;;;;;1.13;0.40;;;5.00;99.90;;;;;;5054372;28;20500;-79
2022/12/20 00:48:20;;;;;;;0.40;0.30;;;5.20;99.90;;;;;;5054047;28;20984;-78
2022/12/20 00:50:48;;;;;;;0.83;0.30;;;5.10;99.90;;;;;;5054235;28;20450;-78
2022/12/20 00:53:15;;;;;;;1.37;0.67;;;5.20;99.90;;;;;;5053580;28;20988;-79
2022/12/20 00:55:42;;;;;;;0.87;0.50;;;5.10;99.90;;;;;;5054135;28;20450;-79
2022/12/20 00:58:09;;;;;;;0.60;0.30;;;5.10;99.90;;;;;;5054136;28;20450;-78
2022/12/20 01:00:36;;;;;;;0.40;0.40;;;5.10;99.90;;;;;;5053787;28;20447;-79
2022/12/20 01:03:03;;;;;;;0.83;0.50;;;5.10;99.90;;;;;;5054052;28;20824;-78
2022/12/20 01:05:30;;;;;;;0.40;0.30;;;5.10;99.90;;;;;;5054035;28;20457;-78
2022/12/20 01:07:59;;;;;;;0.40;0.40;;;5.10;99.90;;;;;;5053684;28;20525;-79
2022/12/20 01:10:26;;;;;;;1.67;0.53;;;5.10;99.90;;;;;;5053906;28;20442;-79
2022/12/20 01:12:53;;;;;;;0.50;0.50;;;5.10;99.90;;;;;;5053819;28;20470;-78
2022/12/20 01:15:20;;;;;;;0.93;0.40;;;5.20;99.90;;;;;;5053739;28;20493;-79
2022/12/20 01:17:47;;;;;;;0.40;0.30;;;5.10;99.90;;;;;;5053824;28;20454;-79
2022/12/20 01:20:14;;;;;;;0.53;0.53;;;5.20;99.90;;;;;;5053730;28;20453;-79
2022/12/20 01:22:41;;;;;;;0.67;0.67;;;5.20;99.90;;;;;;5053079;28;20912;-79
2022/12/20 01:25:10;;;;;;;0.40;0.40;;;5.20;99.90;;;;;;5053445;28;20956;-79
2022/12/20 01:27:36;;;;;;;0.43;0.43;;;5.10;99.90;;;;;;5053641;28;20450;-79
2022/12/20 01:30:03;;;;;;;0.60;0.40;;;5.10;99.90;;;;;;5053734;28;20454;-79
2022/12/20 01:32:30;;;;;;;0.40;0.40;;;5.10;99.90;;;;;;5053461;28;20446;-79
2022/12/20 01:34:57;;;;;;;1.40;0.93;;;5.10;99.90;;;;;;5053196;28;21035;-78
2022/12/20 01:37:24;;;;;;;0.30;0.30;;;5.10;99.90;;;;;;5053180;28;20946;-78
2022/12/20 01:39:50;;;;;;;0.40;0.37;;;5.10;99.90;;;;;;5053141;28;20810;-79
2022/12/20 01:42:19;;;;;;;0.40;0.40;;;5.00;99.90;;;;;;5053146;28;20446;-78
2022/12/20 01:44:55;;;;;;;1.10;0.50;;;5.10;99.90;;;;;;5053342;28;20485;-78
2022/12/20 01:47:25;;;;;;;0.97;0.50;;;5.10;99.90;;;;;;5053421;28;20445;-79
2022/12/20 01:49:54;;;;;;;0.50;0.40;;;5.10;99.90;;;;;;5053290;28;20504;-79
2022/12/20 01:52:26;;;;;;;1.87;0.50;;;5.10;99.90;;;;;;5052964;28;20946;-78
2022/12/20 01:54:56;;;;;;;1.83;1.03;;;5.10;99.90;;;;;;5053240;28;20466;-78
2022/12/20 01:57:31;;;;;;;0.30;0.30;;;5.10;99.90;;;;;;5053016;28;20902;-78
2022/12/20 01:59:58;;;;;;;1.70;0.43;;;5.10;99.90;;;;;;5053436;28;20441;-79
2022/12/20 02:02:26;;;;;;;3.20;1.23;;;5.10;99.90;;;;;;5053229;28;20451;-78
2022/12/20 02:04:53;;;;;;;1.47;0.73;;;5.10;99.90;;;;;;5053205;28;20453;-79
2022/12/20 02:07:24;;;;;;;1.40;0.50;;;5.10;99.90;;;;;;5056557;28;20455;-79
2022/12/20 02:09:53;;;;;;;0.90;0.90;;;5.10;99.90;;;;;;5057390;28;20442;-79
2022/12/20 02:12:22;;;;;;;1.37;0.77;;;5.10;99.90;;;;;;5056985;28;20968;-79
2022/12/20 02:15:12;;;;;;;1.57;1.43;;;5.10;99.90;;;;;;5056842;28;20482;-78
2022/12/20 02:17:48;;;;;;;1.10;1.10;;;5.20;99.90;;;;;;5040261;28;20463;-79
2022/12/20 02:20:47;;;;;;;0.60;0.40;;;5.20;99.90;;;;;;5057384;28;20446;-79
2022/12/20 02:23:46;;;;;;;0.40;0.30;;;5.20;99.90;;;;;;5056749;28;20504;-79
2022/12/20 02:26:29;;;;;;;1.07;0.53;;;5.20;99.90;;;;;;5031608;28;20469;-78
2022/12/20 02:29:19;;;;;;;2.77;0.97;;;5.20;99.90;;;;;;5056667;28;20426;-79
2022/12/20 02:31:52;;;;;;;3.47;0.60;;;5.20;99.90;;;;;;5057068;28;20431;-79
2022/12/20 02:34:23;;;;;;;4.47;1.33;;;5.20;99.90;;;;;;5056760;28;20489;-79
2022/12/20 02:36:50;;;;;;;0.80;0.60;;;5.20;99.90;;;;;;5056549;28;20431;-79
2022/12/20 02:39:17;;;;;;;2.53;0.50;;;5.20;99.90;;;;;;5056436;28;20950;-79
2022/12/20 02:41:48;;;;;;;0.83;0.40;;;5.20;99.90;;;;;;5056770;28;20457;-79
2022/12/20 02:47:10;;;;;;;2.00;0.43;;;5.20;99.90;;;;;;5056985;28;20769;-79
2022/12/20 02:49:41;;;;;;;3.20;0.80;;;5.20;99.90;;;;;;5056626;28;20438;-78
2022/12/20 02:52:09;;;;;;;2.40;0.50;;;5.20;99.90;;;;;;5056596;28;20438;-79
2022/12/20 02:54:37;;;;;;;0.37;0.37;;;5.20;99.90;;;;;;5056404;28;20487;-79
2022/12/20 02:57:11;;;;;;;0.80;0.40;;;5.20;99.90;;;;;;5056464;28;20461;-79
2022/12/20 02:59:43;;;;;;;2.10;0.80;;;5.20;99.90;;;;;;5056157;28;20437;-79
2022/12/20 03:02:12;;;;;;;3.37;0.50;;;5.20;99.90;;;;;;5056408;28;20434;-79
2022/12/20 03:04:41;;;;;;;0.50;0.50;;;5.30;99.90;;;;;;5056287;28;20553;-79
2022/12/20 03:07:10;;;;;;;0.50;0.40;;;5.30;99.90;;;;;;5056277;28;20458;-78
2022/12/20 03:09:39;;;;;;;0.37;0.30;;;5.30;99.90;;;;;;5056228;28;20446;-79
2022/12/20 03:12:07;;;;;;;0.40;0.30;;;5.30;99.90;;;;;;5055874;28;20968;-79
2022/12/20 03:14:34;;;;;;;0.77;0.40;;;5.30;99.90;;;;;;5055976;28;20565;-79
2022/12/20 03:17:01;;;;;;;0.83;0.67;;;5.40;99.90;;;;;;5056307;28;20458;-79
2022/12/20 03:19:29;;;;;;;0.50;0.40;;;5.40;99.90;;;;;;5056063;28;20442;-79
2022/12/20 03:21:56;;;;;;;5.90;0.40;;;5.30;99.90;;;;;;5056021;28;20447;-79
2022/12/20 03:24:23;;;;;;;2.40;1.50;;;5.30;99.90;;;;;;5055536;28;20478;-79
2022/12/20 03:26:50;;;;;;;0.40;0.40;;;5.30;99.90;;;;;;5056159;28;20450;-79
2022/12/20 03:29:16;;;;;;;0.63;0.57;;;5.30;99.90;;;;;;5056005;28;20446;-79
2022/12/20 03:31:43;;;;;;;0.60;0.60;;;5.40;99.90;;;;;;5056110;28;20446;-79
2022/12/20 03:34:10;;;;;;;1.80;0.50;;;5.40;99.90;;;;;;5055633;28;20467;-79
2022/12/20 03:36:38;;;;;;;0.40;0.40;;;5.40;99.90;;;;;;5055730;28;20446;-79
2022/12/20 03:39:05;;;;;;;1.30;0.53;;;5.40;99.90;;;;;;5055685;28;20450;-79
2022/12/20 03:41:32;;;;;;;0.30;0.30;;;5.40;99.90;;;;;;5055655;28;20457;-79
2022/12/20 03:43:58;;;;;;;0.37;0.27;;;5.40;99.90;;;;;;5055575;28;20509;-79
2022/12/20 03:46:26;;;;;;;1.43;0.67;;;5.40;99.90;;;;;;5055522;28;20490;-79
2022/12/20 03:48:53;;;;;;;1.03;0.87;;;5.40;99.90;;;;;;5055497;28;20494;-79
2022/12/20 03:51:20;;;;;;;0.50;0.40;;;5.40;99.90;;;;;;5055710;28;20442;-79
2022/12/20 03:53:48;;;;;;;2.40;0.60;;;5.40;99.90;;;;;;5055187;28;20477;-79
2022/12/20 03:56:15;;;;;;;0.60;0.60;;;5.40;99.90;;;;;;5055275;28;20485;-79
2022/12/20 03:58:42;;;;;;;0.70;0.70;;;5.40;99.90;;;;;;5055331;28;20462;-79
2022/12/20 04:01:23;;;;;;;0.40;0.40;;;5.40;99.90;;;;;;5055350;28;20450;-79
2022/12/20 04:03:50;;;;;;;0.30;0.30;;;5.40;99.90;;;;;;5055234;28;20455;-79
2022/12/20 04:06:18;;;;;;;0.53;0.53;;;5.40;99.90;;;;;;5055411;28;20443;-79
2022/12/20 04:08:45;;;;;;;0.60;0.60;;;5.40;99.90;;;;;;5055134;28;20451;-79
2022/12/20 04:11:16;;;;;;;0.30;0.30;;;5.40;99.90;;;;;;5054790;28;20962;-79
2022/12/20 04:13:43;;;;;;;0.30;0.30;;;5.50;99.90;;;;;;5055052;28;20470;-79
2022/12/20 04:16:10;;;;;;;0.43;0.40;;;5.50;99.90;;;;;;5054943;28;20483;-79
2022/12/20 04:18:36;;;;;;;0.33;0.33;;;5.60;99.90;;;;;;5054965;28;20450;-79
2022/12/20 04:21:05;;;;;;;0.80;0.67;;;5.60;99.90;;;;;;5054914;28;20446;-79
2022/12/20 04:23:33;;;;;;;1.13;1.03;;;5.60;99.90;;;;;;5054384;28;20489;-79
2022/12/20 04:26:00;;;;;;;0.30;0.30;;;5.60;99.90;;;;;;5054707;28;20446;-79
2022/12/20 04:28:28;;;;;;;0.80;0.40;;;5.60;99.90;;;;;;5054283;28;20474;-79
2022/12/20 04:30:55;;;;;;;1.47;0.40;;;5.60;99.90;;;;;;5054391;28;20461;-79
2022/12/20 04:33:22;;;;;;;1.03;0.50;;;5.60;99.90;;;;;;5054735;28;20466;-79
2022/12/20 04:35:49;;;;;;;0.60;0.50;;;5.60;99.90;;;;;;5054192;28;21009;-79
2022/12/20 04:38:15;;;;;;;0.80;0.80;;;5.60;99.90;;;;;;5054167;28;20492;-79
2022/12/20 04:40:42;;;;;;;0.87;0.60;;;5.50;99.90;;;;;;5054616;28;20447;-79
2022/12/20 04:43:09;;;;;;;0.50;0.40;;;5.50;99.90;;;;;;5054415;28;20473;-79
2022/12/20 04:45:37;;;;;;;0.83;0.60;;;5.50;99.90;;;;;;5054413;28;20452;-79
2022/12/20 04:48:04;;;;;;;0.40;0.30;;;5.60;99.90;;;;;;5054083;28;20938;-79
2022/12/20 04:50:31;;;;;;;0.40;0.40;;;5.60;99.90;;;;;;5054308;28;20459;-79
2022/12/20 04:55:42;;;;;;;1.13;0.40;;;5.50;99.90;;;;;;5054240;28;20505;-79
2022/12/20 04:58:09;;;;;;;0.97;0.50;;;5.50;99.90;;;;;;5054134;28;20458;-79
2022/12/20 05:00:37;;;;;;;2.00;0.37;;;5.40;99.90;;;;;;5053773;28;20961;-79
2022/12/20 05:03:04;;;;;;;0.50;0.30;;;5.40;99.90;;;;;;5053690;28;20829;-79
2022/12/20 05:05:31;;;;;;;0.83;0.60;;;5.40;99.90;;;;;;5054038;28;20454;-79
2022/12/20 05:07:58;;;;;;;0.30;0.30;;;5.40;99.90;;;;;;5054002;28;20454;-79
2022/12/20 05:10:25;;;;;;;0.40;0.40;;;5.40;99.90;;;;;;5053655;28;20938;-79
2022/12/20 05:12:52;;;;;;;1.03;0.70;;;5.40;99.90;;;;;;5053822;28;20466;-79
2022/12/20 05:15:19;;;;;;;2.00;0.70;;;5.50;99.90;;;;;;5053801;28;20482;-79
2022/12/20 05:17:47;;;;;;;0.40;0.33;;;5.50;99.90;;;;;;5053849;28;20446;-79
2022/12/20 05:20:14;;;;;;;0.50;0.50;;;5.50;99.90;;;;;;5053760;28;20455;-79
2022/12/20 05:28:09;;;;;;;2.10;0.40;;;5.60;99.90;;;;;;5053699;28;20405;-79
2022/12/20 05:30:36;;;;;;;0.50;0.40;;;5.60;99.90;;;;;;5053587;28;20446;-79
2022/12/20 05:33:04;;;;;;;0.30;0.30;;;5.70;99.90;;;;;;5053443;28;20475;-79
2022/12/20 05:35:31;;;;;;;0.30;0.27;;;5.70;99.90;;;;;;5053438;28;20520;-79
2022/12/20 05:37:57;;;;;;;0.40;0.37;;;5.70;99.90;;;;;;5053445;28;20458;-79
2022/12/20 05:40:24;;;;;;;0.40;0.40;;;5.60;99.90;;;;;;5052408;28;20987;-79
2022/12/20 05:42:51;;;;;;;0.50;0.43;;;5.60;99.90;;;;;;5053348;28;20474;-79
2022/12/20 05:45:18;;;;;;;0.87;0.40;;;5.60;99.90;;;;;;5053391;28;20442;-79
2022/12/20 05:47:45;;;;;;;0.40;0.40;;;5.60;99.90;;;;;;5053453;28;20459;-79
2022/12/20 05:50:13;;;;;;;0.57;0.57;;;5.60;99.90;;;;;;5053310;28;20455;-79
2022/12/20 05:52:39;;;;;;;7.00;0.53;;;5.60;99.90;;;;;;5053222;28;20451;-79
2022/12/20 05:55:07;;;;;;;0.30;0.30;;;5.60;99.90;;;;;;5053233;28;20486;-79
2022/12/20 05:57:34;;;;;;;0.40;0.40;;;5.60;99.90;;;;;;5053331;28;20461;-79
2022/12/20 06:00:00;;;;;;;1.07;1.07;;;5.50;99.90;;;;;;5053252;28;20537;-79
2022/12/20 06:02:27;;;;;;;0.30;0.30;;;5.60;99.90;;;;;;5052917;28;20435;-79
2022/12/20 06:04:54;;;;;;;0.50;0.47;;;5.60;99.90;;;;;;5053222;28;20454;-79
2022/12/20 06:07:22;;;;;;;0.50;0.50;;;5.60;99.90;;;;;;5052855;28;20826;-79
2022/12/20 06:09:49;;;;;;;0.30;0.30;;;5.60;99.90;;;;;;5053192;28;20446;-79
2022/12/20 06:12:16;;;;;;;0.50;0.30;;;5.60;99.90;;;;;;5053386;28;20469;-79
2022/12/20 06:14:42;;;;;;;0.70;0.50;;;5.60;99.90;;;;;;5052974;28;20489;-79
2022/12/20 06:17:10;;;;;;;1.13;0.53;;;5.60;99.90;;;;;;5052816;28;20461;-79
2022/12/20 06:19:38;;;;;;;0.30;0.27;;;5.70;99.90;;;;;;5053058;28;20469;-79
2022/12/20 06:22:05;;;;;;;2.83;0.53;;;5.60;99.90;;;;;;5052985;28;20442;-79
2022/12/20 06:24:33;;;;;;;1.73;0.70;;;5.60;99.90;;;;;;5052563;28;20482;-79
2022/12/20 06:27:01;;;;;;;0.60;0.50;;;5.70;99.90;;;;;;5053223;28;20453;-79
2022/12/20 06:29:27;;;;;;;0.40;0.40;;;5.80;99.90;;;;;;5052881;28;20439;-79
2022/12/20 06:31:54;;;;;;;0.40;0.33;;;5.80;99.90;;;;;;5053053;28;20934;-79
2022/12/20 06:34:21;;;;;;;0.40;0.40;;;5.80;99.90;;;;;;5052525;28;20998;-79
2022/12/20 06:36:48;;;;;;;0.30;0.30;;;5.80;99.90;;;;;;5053123;28;20482;-79
2022/12/20 06:39:14;;;;;;;0.50;0.30;;;5.90;99.90;;;;;;5052866;28;20446;-79
2022/12/20 06:41:43;;;;;;;0.50;0.50;;;5.90;99.90;;;;;;5052901;28;20540;-79
2022/12/20 06:44:10;;;;;;;2.00;0.60;;;5.90;99.90;;;;;;5052729;28;20475;-79
2022/12/20 06:46:36;;;;;;;0.77;0.40;;;5.80;99.90;;;;;;5052493;28;20816;-79
2022/12/20 06:49:03;;;;;;;0.40;0.30;;;5.90;99.90;;;;;;5052461;28;20463;-79
2022/12/20 06:51:30;;;;;;;1.03;0.50;;;5.90;99.90;;;;;;5053196;28;20446;-79
2022/12/20 06:53:57;;;;;;;0.40;0.30;;;5.90;99.90;;;;;;5056470;28;20493;-79
2022/12/20 06:56:23;;;;;;;1.17;1.17;;;5.90;99.90;;;;;;5056142;28;20474;-79
2022/12/20 06:58:51;;;;;;;0.67;0.50;;;6.00;99.90;;;;;;5056461;28;20461;-79
2022/12/20 07:01:18;;;;;;;0.30;0.30;;;6.00;99.90;;;;;;5056228;28;20450;-79
2022/12/20 07:03:45;;;;;;;1.27;0.43;;;6.00;99.90;;;;;;5055945;28;21001;-79
2022/12/20 07:06:12;;;;;;;0.50;0.40;;;6.10;99.90;;;;;;5056286;28;20442;-79
2022/12/20 07:08:39;;;;;;;0.30;0.30;;;6.10;99.90;;;;;;5056234;28;20438;-79
2022/12/20 07:11:07;;;;;;;0.50;0.40;;;6.10;99.90;;;;;;5056248;28;20831;-79
2022/12/20 07:13:34;;;;;;;0.33;0.30;;;6.20;99.90;;;;;;5056147;28;20469;-79
2022/12/20 07:16:03;;;;;;;0.47;0.40;;;6.20;99.90;;;;;;5055743;28;21072;-79
2022/12/20 07:18:31;;;;;;;1.23;0.90;;;6.20;99.90;;;;;;5056076;28;20450;-79
2022/12/20 07:21:00;;;;;;;0.50;0.40;;;6.20;99.90;;;;;;5055913;28;20450;-79
2022/12/20 07:23:27;;;;;;;0.40;0.37;;;6.20;99.90;;;;;;5055450;28;20502;-79
2022/12/20 07:25:55;;;;;;;0.30;0.30;;;6.20;99.90;;;;;;5055941;28;20450;-79
2022/12/20 07:28:22;;;;;;;0.40;0.30;;;6.20;99.90;;;;;;5055938;28;20446;-79
2022/12/20 07:30:49;;;;;;;0.83;0.50;;;6.30;99.90;;;;;;5055543;28;20462;-79
2022/12/20 07:33:17;;;;;;;4.83;0.50;;;6.30;99.90;;;;;;5055756;28;20478;-79
2022/12/20 07:35:45;;;;;;;0.60;0.37;;;6.30;99.90;;;;;;5055653;28;20486;-79
2022/12/20 07:38:12;;;;;;;0.40;0.30;;;6.30;99.90;;;;;;5055811;28;20435;-79
2022/12/20 07:40:41;;;;;;;0.50;0.30;;;6.40;99.90;;;;;;5055674;28;20453;-79
2022/12/20 07:43:09;;;;;;;0.30;0.30;;;6.40;99.90;;;;;;5055582;28;20470;-80
2022/12/20 07:45:36;;;;;;;0.60;0.60;;;6.50;99.90;;;;;;5055530;28;20453;-79
2022/12/20 07:48:03;;;;;;;0.40;0.40;;;6.40;99.90;;;;;;5055244;28;20497;-79
2022/12/20 07:50:32;;;;;;;0.33;0.30;;;6.40;99.90;;;;;;5055497;28;20438;-79
2022/12/20 07:53:00;;;;;;;0.40;0.30;;;6.40;99.90;;;;;;5055448;28;20467;-79
2022/12/20 07:55:28;;;;;;;0.40;0.30;;;6.40;99.90;;;;;;5055519;28;20450;-79
2022/12/20 07:58:00;;;;;;;0.30;0.30;;;6.40;99.90;;;;;;5055448;28;20439;-79
2022/12/20 08:00:27;;;;;;;0.40;0.40;;;6.40;99.90;;;;;;5055394;28;20536;-79
2022/12/20 08:03:00;;;;;;;0.37;0.37;;;6.50;99.90;;;;;;5054721;28;20467;-79
2022/12/20 08:05:28;;;;;;;0.40;0.40;;;6.50;99.90;;;;;;5055036;28;20506;-79
2022/12/20 08:07:59;;;;;;;0.70;0.47;;;6.50;99.90;;;;;;5054878;28;20431;-79
2022/12/20 08:10:27;;;;;;;3.20;0.50;;;6.50;99.90;;;;;;5055134;28;20443;-79
2022/12/20 08:12:54;;;;;;;1.17;0.50;;;6.60;99.90;;;;;;5054716;28;20818;-79
2022/12/20 08:15:21;;;;;;;0.30;0.30;;;6.50;99.90;;;;;;5054885;28;20447;-79
2022/12/20 08:17:49;;;;;;;0.50;0.50;;;6.60;99.90;;;;;;5054917;28;20560;-79
2022/12/20 08:20:16;;;;;;;0.30;0.30;;;6.60;99.90;;;;;;5055088;28;20450;-79
2022/12/20 08:22:44;;;;;;;0.50;0.47;;;6.60;99.90;;;;;;5054561;28;20494;-79
2022/12/20 08:25:12;;;;;;;1.30;0.50;;;6.50;99.90;;;;;;5054519;28;20873;-79
2022/12/20 08:27:38;;;;;;;0.70;0.70;;;6.60;99.90;;;;;;5054567;28;20461;-79
2022/12/20 08:30:09;;;;;;;0.30;0.30;;;6.70;99.90;;;;;;5054771;28;20446;-79
2022/12/20 08:32:36;;;;;;;0.50;0.50;;;6.70;99.90;;;;;;5054859;28;20439;-79
2022/12/20 08:35:03;;;;;;;1.23;1.00;;;6.80;99.90;;;;;;5054685;28;20451;-79
2022/12/20 08:37:29;;;;;;;1.83;0.47;;;6.90;99.90;;;;;;5054502;28;20513;-79
2022/12/20 08:39:56;;;;;;;1.57;0.57;;;6.80;99.90;;;;;;5054146;28;20460;-79
2022/12/20 08:42:24;;;;;;;2.97;0.53;;;6.80;99.90;;;;;;5054477;28;20485;-79
2022/12/20 08:44:51;;;;;;;0.53;0.53;;;6.90;99.90;;;;;;5053993;28;20985;-79
2022/12/20 08:47:18;;;;;;;0.43;0.40;;;7.00;99.90;;;;;;5053968;28;20822;-79
2022/12/20 08:49:45;;;;;;;0.40;0.40;;;7.00;99.90;;;;;;5054304;28;20446;-79
2022/12/20 08:52:11;;;;;;;1.77;0.90;;;7.00;99.90;;;;;;5054259;28;20472;-79
2022/12/20 08:54:38;;;;;;;0.43;0.43;;;7.00;99.90;;;;;;5053851;28;21016;-79
2022/12/20 08:57:05;;;;;;;0.73;0.50;;;7.00;99.90;;;;;;5053785;28;20482;-79
2022/12/20 08:59:33;;;;;;;0.30;0.30;;;7.00;99.90;;;;;;5054155;28;20477;-79
2022/12/20 09:02:00;;;;;;;0.53;0.53;;;7.10;99.90;;;;;;5053784;28;20922;-79
2022/12/20 09:04:27;;;;;;;0.40;0.40;;;7.20;99.90;;;;;;5053639;28;20474;-79
2022/12/20 09:06:53;;;;;;;1.77;0.70;;;7.10;99.90;;;;;;5053876;28;20450;-79
2022/12/20 09:09:20;;;;;;;2.10;0.70;;;7.20;99.90;;;;;;5053938;28;20454;-79
2022/12/20 09:11:47;;;;;;;0.40;0.40;;;7.20;99.90;;;;;;5053898;28;20478;-79
2022/12/20 09:14:14;;;;;;;0.77;0.77;;;7.20;99.90;;;;;;5053709;28;20474;-79
2022/12/20 09:16:42;;;;;;;2.13;0.40;;;7.20;99.90;;;;;;5053460;28;20989;-79
2022/12/20 09:19:12;;;;;;;1.13;0.30;;;7.30;99.90;;;;;;5053896;28;20442;-79
2022/12/20 09:21:39;;;;;;;0.40;0.40;;;7.30;99.90;;;;;;5053871;28;20442;-79
2022/12/20 09:24:07;;;;;;;0.47;0.40;;;7.30;99.90;;;;;;5053565;28;20490;-79
2022/12/20 09:26:34;;;;;;;0.40;0.30;;;7.30;99.90;;;;;;5053503;28;20443;-79
2022/12/20 09:29:01;;;;;;;0.50;0.30;;;7.30;99.90;;;;;;5053729;28;20454;-79
2022/12/20 09:31:28;;;;;;;1.40;0.60;;;7.30;99.90;;;;;;5053772;28;20450;-79
2022/12/20 09:33:58;;;;;;;0.40;0.30;;;7.40;99.90;;;;;;5053745;28;20489;-79
2022/12/20 09:36:26;;;;;;;0.50;0.50;;;7.40;99.90;;;;;;5053496;28;20489;-79
2022/12/20 09:38:54;;;;;;;1.93;0.80;;;7.40;99.90;;;;;;5053574;28;20446;-79
2022/12/20 09:41:28;;;;;;;0.40;0.40;;;7.60;99.90;;;;;;5053200;28;20942;-79
2022/12/20 09:43:57;;;;;;;0.50;0.30;;;7.70;99.90;;;;;;5053514;28;20475;-79
2022/12/20 09:46:24;;;;;;;0.80;0.70;;;7.80;99.90;;;;;;5053466;28;20451;-80
2022/12/20 09:48:51;;;;;;;3.00;0.50;;;7.80;99.90;;;;;;5053387;28;20442;-79
2022/12/20 09:51:36;;;;;;;0.30;0.30;;;7.90;99.90;;;;;;5053080;28;20973;-79
2022/12/20 09:54:14;;;;;;;0.80;0.40;;;8.10;99.90;;;;;;5053900;28;20485;-79
2022/12/20 09:56:46;;;;;;;1.57;0.80;;;8.40;99.90;;;;;;5053496;28;20546;-80
2022/12/20 09:59:15;;;;;;;3.73;0.50;;;8.50;99.90;;;;;;5053314;28;20431;-79
2022/12/20 10:01:45;;;;;;;0.60;0.60;;;8.50;99.90;;;;;;5053249;28;20450;-79
2022/12/20 10:04:20;;;;;;;1.70;0.30;;;8.60;99.90;;;;;;5053050;28;20480;-80
2022/12/20 10:07:00;;;;;;;0.47;0.47;;;8.50;99.90;;;;;;5053075;28;20537;-79
2022/12/20 10:09:42;;;;;;;0.50;0.50;;;8.50;99.90;;;;;;5053217;28;20673;-80
2022/12/20 10:12:22;;;;;;;0.53;0.40;;;8.50;99.90;;;;;;5053197;28;20845;-80
2022/12/20 10:15:00;;;;;;;0.93;0.50;;;8.50;99.90;;;;;;5052833;28;21015;-80
2022/12/20 10:17:45;;;;;;;0.40;0.40;;;8.50;99.90;;;;;;5052796;28;20477;-80
2022/12/20 10:20:27;;;;;;;0.50;0.40;;;8.40;99.90;;;;;;5053167;28;20431;-80
2022/12/20 10:23:02;;;;;;;0.33;0.30;;;8.40;99.90;;;;;;5052789;28;20858;-80
2022/12/20 10:25:31;;;;;;;0.40;0.40;;;8.30;99.90;;;;;;5053074;28;20442;-80
2022/12/20 10:28:01;;;;;;;0.43;0.43;;;8.30;99.90;;;;;;5056003;28;20447;-80
2022/12/20 10:30:29;;;;;;;0.80;0.40;;;8.30;99.90;;;;;;5056684;28;20453;-80
2022/12/20 10:32:58;;;;;;;0.37;0.30;;;8.20;99.90;;;;;;5057039;28;20470;-80
2022/12/20 10:35:27;;;;;;;0.30;0.30;;;8.10;99.90;;;;;;5056920;28;20500;-80
2022/12/20 10:38:04;;;;;;;0.37;0.33;;;8.10;99.90;;;;;;5056805;28;20528;-80
2022/12/20 10:40:33;;;;;;;0.43;0.40;;;8.10;99.90;;;;;;5056798;28;20470;-80
2022/12/20 10:43:01;;;;;;;0.43;0.43;;;8.10;99.90;;;;;;5056989;28;20474;-80
2022/12/20 10:45:34;;;;;;;0.90;0.57;;;8.10;99.90;;;;;;5056757;28;20454;-80
2022/12/20 10:48:03;;;;;;;0.60;0.37;;;8.20;99.90;;;;;;5056744;28;20435;-80
2022/12/20 10:50:30;;;;;;;0.83;0.50;;;8.20;99.90;;;;;;5056657;28;20504;-80
2022/12/20 10:53:23;;;;;;;0.60;0.57;;;8.20;99.90;;;;;;5056280;28;20466;-80
2022/12/20 10:55:50;;;;;;;0.67;0.67;;;8.20;99.90;;;;;;5056561;28;20453;-80
2022/12/20 10:58:21;;;;;;;0.37;0.30;;;8.20;99.90;;;;;;5056446;28;20485;-80
2022/12/20 11:00:49;;;;;;;0.40;0.40;;;8.30;99.90;;;;;;5056455;28;20534;-80
2022/12/20 11:03:19;;;;;;;0.93;0.60;;;8.30;99.90;;;;;;5056354;28;20474;-80
2022/12/20 11:05:59;;;;;;;0.40;0.40;;;8.40;99.90;;;;;;5056552;28;20443;-80
2022/12/20 11:08:29;;;;;;;0.77;0.47;;;8.40;99.90;;;;;;5056064;28;20936;-80
2022/12/20 11:11:15;;;;;;;0.40;0.37;;;8.50;99.90;;;;;;5056309;28;20438;-80
2022/12/20 11:13:43;;;;;;;0.60;0.60;;;8.50;99.90;;;;;;5056147;28;20557;-80
2022/12/20 11:16:33;;;;;;;1.40;0.60;;;8.60;99.90;;;;;;5056192;28;20814;-80
2022/12/20 11:19:25;;;;;;;0.60;0.40;;;8.60;99.90;;;;;;5056167;28;20461;-80
2022/12/20 11:22:03;;;;;;;0.60;0.50;;;8.60;99.90;;;;;;5056181;28;20435;-80
2022/12/20 11:24:37;;;;;;;0.50;0.40;;;8.70;99.90;;;;;;5055689;28;20497;-80
2022/12/20 11:27:21;;;;;;;3.23;0.50;;;8.70;99.90;;;;;;5056001;28;20434;-80
2022/12/20 11:30:13;;;;;;;1.10;0.40;;;8.70;99.90;;;;;;5055622;28;20435;-80
2022/12/20 11:32:58;;;;;;;1.70;0.50;;;8.70;99.90;;;;;;5045814;28;20458;-80
2022/12/20 11:35:32;;;;;;;1.43;0.80;;;8.70;99.90;;;;;;5055586;28;20411;-80
2022/12/20 11:38:07;;;;;;;0.50;0.47;;;8.70;99.90;;;;;;5054680;28;20463;-80
2022/12/20 11:40:40;;;;;;;0.40;0.40;;;8.70;99.90;;;;;;5055866;28;20528;-80
2022/12/20 11:43:25;;;;;;;0.40;0.40;;;8.70;99.90;;;;;;5055295;28;20477;-80
2022/12/20 11:46:08;;;;;;;0.50;0.50;;;8.60;99.90;;;;;;5055656;28;20434;-80
2022/12/20 11:48:50;;;;;;;0.40;0.37;;;8.60;99.90;;;;;;5055598;28;20458;-80
2022/12/20 11:51:22;;;;;;;0.40;0.40;;;8.60;99.90;;;;;;5055226;28;20438;-79
2022/12/20 11:53:54;;;;;;;0.40;0.30;;;8.70;99.90;;;;;;5055393;28;20474;-80
2022/12/20 11:56:26;;;;;;;0.47;0.47;;;8.70;99.90;;;;;;5055404;28;20442;-81
2022/12/20 11:58:58;;;;;;;0.40;0.30;;;8.70;99.90;;;;;;5055326;28;20475;-80
2022/12/20 12:01:29;;;;;;;1.90;0.30;;;8.60;99.90;;;;;;5055686;28;20465;-81
2022/12/20 12:04:04;;;;;;;0.70;0.67;;;8.70;99.90;;;;;;5054967;28;20474;-77
2022/12/20 12:06:34;;;;;;;0.60;0.40;;;8.60;99.90;;;;;;5055379;28;20484;-78
2022/12/20 12:09:11;;;;;;;0.40;0.40;;;8.60;99.90;;;;;;5054887;28;20493;-80
2022/12/20 12:11:44;;;;;;;1.20;0.50;;;8.60;99.90;;;;;;5055177;28;20439;-80
2022/12/20 12:14:22;;;;;;;0.90;0.40;;;8.50;99.90;;;;;;5055312;28;20461;-80
2022/12/20 12:16:54;;;;;;;0.50;0.50;;;8.50;99.90;;;;;;5054701;28;20914;-80
2022/12/20 12:19:23;;;;;;;0.70;0.30;;;8.50;99.90;;;;;;5055040;28;20435;-80
2022/12/20 12:21:56;;;;;;;0.40;0.40;;;8.50;99.90;;;;;;5054841;28;20450;-80
2022/12/20 12:24:28;;;;;;;0.63;0.50;;;8.50;99.90;;;;;;5054575;28;20485;-80
2022/12/20 12:26:58;;;;;;;0.40;0.40;;;8.60;99.90;;;;;;5054583;28;20439;-79
2022/12/20 12:29:25;;;;;;;0.40;0.40;;;8.60;99.90;;;;;;5054989;28;20484;-80
2022/12/20 12:31:57;;;;;;;0.40;0.30;;;8.60;99.90;;;;;;5055483;28;20443;-80
2022/12/20 12:34:36;;;;;;;0.40;0.30;;;8.50;99.90;;;;;;5054684;28;20446;-80
2022/12/20 12:37:39;;;;;;;0.77;0.50;;;8.50;99.90;;;;;;5054244;28;20834;-80
2022/12/20 12:40:45;;;;;;;0.40;0.40;;;8.60;99.90;;;;;;5054611;28;20431;-80
2022/12/20 12:43:36;;;;;;;1.03;0.50;;;8.60;99.90;;;;;;5048101;28;20477;-80
2022/12/20 12:46:11;;;;;;;0.53;0.53;;;8.60;99.90;;;;;;5054723;28;20431;-80
2022/12/20 12:48:42;;;;;;;0.50;0.50;;;8.60;99.90;;;;;;5054424;28;20508;-79
2022/12/20 12:51:11;;;;;;;0.40;0.40;;;8.60;99.90;;;;;;5053921;28;20435;-80
2022/12/20 12:53:43;;;;;;;0.40;0.30;;;8.60;99.90;;;;;;5053956;28;20544;-80
2022/12/20 12:56:30;;;;;;;0.50;0.50;;;8.60;99.90;;;;;;5053917;28;20439;-80
2022/12/20 12:59:24;;;;;;;0.67;0.40;;;8.60;99.90;;;;;;5054146;28;20490;-80
2022/12/20 13:01:54;;;;;;;1.50;0.60;;;8.60;99.90;;;;;;5054206;28;20445;-80
2022/12/20 13:04:27;;;;;;;0.50;0.40;;;8.60;99.90;;;;;;5053956;28;20973;-80
2022/12/20 13:06:58;;;;;;;4.47;0.90;;;8.60;99.90;;;;;;5053833;28;20427;-80
2022/12/20 13:09:43;;;;;;;4.40;0.53;;;8.70;99.90;;;;;;5054069;28;20435;-80
2022/12/20 13:12:49;;;;;;;0.40;0.40;;;8.70;99.90;;;;;;5054240;28;20442;-80
2022/12/20 13:15:50;;;;;;;1.43;0.50;;;8.70;99.90;;;;;;5053965;28;20488;-81
2022/12/20 13:18:23;;;;;;;0.40;0.40;;;8.70;99.90;;;;;;5053789;28;20490;-80
2022/12/20 13:21:18;;;;;;;0.73;0.60;;;8.70;99.90;;;;;;5053803;28;20805;-80
2022/12/20 13:23:45;;;;;;;0.40;0.30;;;8.60;99.90;;;;;;5053265;28;20536;-80
2022/12/20 13:26:49;;;;;;;1.03;0.30;;;8.60;99.90;;;;;;5053748;28;20449;-80